Terminal Aerodrome Forecast
Issued by NWS San Angelo, TX

Home | Current Version | Previous Version | Text Only | Print | Product List | Glossary On
Versions: 1 2 3 4 5 6 7 8 9 10 11 12 13
778
FTUS44 KSJT 072336
TAFSJT
TAF
KSJT 072336Z 0800/0824 36010KT P6SM SCT250
     FM081700 35011G18KT P6SM SKC=

USA.gov is the U.S. government's official web portal to all federal, state and local government web resources and services.